createdAt,value
2024-03-13T00:03:07.110Z,12.50
2024-03-13T00:06:48.898Z,12.50
2024-03-13T00:10:30.967Z,12.50
2024-03-13T00:14:12.957Z,12.50
2024-03-13T00:17:57.122Z,12.40
2024-03-13T00:21:40.258Z,12.50
2024-03-13T00:25:22.177Z,12.50
2024-03-13T00:29:05.495Z,12.50
2024-03-13T00:32:47.529Z,12.40
2024-03-13T00:36:29.445Z,12.40
2024-03-13T00:40:14.929Z,12.40
2024-03-13T00:43:56.910Z,12.40
2024-03-13T00:47:38.834Z,12.40
2024-03-13T00:51:20.691Z,12.30
2024-03-13T00:55:04.155Z,12.20
2024-03-13T00:58:45.962Z,12.20
2024-03-13T01:02:28.153Z,12.20
2024-03-13T01:06:09.905Z,12.20
2024-03-13T01:09:51.803Z,12.20
2024-03-13T01:13:33.619Z,12.20
2024-03-13T01:17:16.345Z,12.20
2024-03-13T01:21:00.108Z,12.10
2024-03-13T01:24:44.100Z,12.10
2024-03-13T01:28:26.255Z,12.00
2024-03-13T01:32:09.142Z,11.90
2024-03-13T01:35:50.983Z,11.90
2024-03-13T01:39:32.792Z,11.80
2024-03-13T01:43:37.174Z,11.80
2024-03-13T01:47:39.581Z,11.80
2024-03-13T01:51:40.216Z,11.80
2024-03-13T01:55:25.175Z,11.70
2024-03-13T01:59:21.214Z,11.70
2024-03-13T02:03:03.258Z,11.70
2024-03-13T02:06:47.826Z,11.60
2024-03-13T02:10:29.932Z,11.60
2024-03-13T02:14:11.737Z,11.60
2024-03-13T02:17:55.460Z,11.60
2024-03-13T02:21:37.763Z,11.60
2024-03-13T02:25:19.739Z,11.70
2024-03-13T02:29:01.602Z,11.60
2024-03-13T02:32:43.557Z,11.60
2024-03-13T02:36:25.464Z,11.60
2024-03-13T02:40:08.958Z,11.70
2024-03-13T02:43:50.857Z,11.70
2024-03-13T02:47:32.772Z,11.70
2024-03-13T02:51:14.643Z,11.70
2024-03-13T02:54:56.592Z,11.70
2024-03-13T02:58:38.517Z,11.70
2024-03-13T03:02:20.326Z,11.70
2024-03-13T03:06:03.244Z,11.70
2024-03-13T03:09:46.000Z,11.70
2024-03-13T03:13:27.879Z,11.70
2024-03-13T03:17:10.109Z,11.70
2024-03-13T03:20:51.949Z,11.70
2024-03-13T03:24:33.921Z,11.70
2024-03-13T03:28:17.712Z,11.70
2024-03-13T03:32:00.739Z,11.70
2024-03-13T03:35:44.622Z,11.70
2024-03-13T03:39:26.615Z,11.70
2024-03-13T03:43:08.622Z,11.70
2024-03-13T03:46:50.958Z,11.70
2024-03-13T03:50:32.854Z,11.70
2024-03-13T03:54:14.679Z,11.70
2024-03-13T03:57:56.508Z,11.70
2024-03-13T04:01:38.675Z,11.70
2024-03-13T04:05:21.447Z,11.70
2024-03-13T04:09:15.804Z,11.70
2024-03-13T04:12:57.927Z,11.70
2024-03-13T04:16:42.654Z,11.70
2024-03-13T04:20:24.498Z,11.70
2024-03-13T04:24:08.731Z,11.70
2024-03-13T04:27:50.680Z,11.70
2024-03-13T04:31:34.328Z,11.70
2024-03-13T04:35:16.386Z,11.70
2024-03-13T04:38:58.263Z,11.70
2024-03-13T04:42:40.936Z,11.70
2024-03-13T04:46:22.889Z,11.70
2024-03-13T04:50:05.197Z,11.70
2024-03-13T04:53:47.220Z,11.70
2024-03-13T04:57:29.115Z,11.80
2024-03-13T05:01:18.355Z,11.70
2024-03-13T05:05:01.239Z,11.70
2024-03-13T05:08:43.259Z,11.80
2024-03-13T05:12:25.949Z,11.70
2024-03-13T05:16:10.986Z,11.70
2024-03-13T05:19:52.875Z,11.70
2024-03-13T05:23:34.730Z,11.70
2024-03-13T05:27:16.868Z,11.70
2024-03-13T05:30:58.726Z,11.70
2024-03-13T05:34:40.614Z,11.70
2024-03-13T05:38:22.468Z,11.70
2024-03-13T05:42:04.426Z,11.70
2024-03-13T05:45:46.729Z,11.70
2024-03-13T05:49:28.722Z,11.70
2024-03-13T05:53:10.748Z,11.70
2024-03-13T05:56:52.620Z,11.70
2024-03-13T06:00:34.932Z,11.70
2024-03-13T06:04:18.534Z,11.70
2024-03-13T06:08:00.321Z,11.80
2024-03-13T06:11:42.240Z,11.70
2024-03-13T06:15:24.179Z,11.70
2024-03-13T06:19:06.211Z,11.80
2024-03-13T06:22:48.787Z,11.80
2024-03-13T06:26:30.698Z,11.80
2024-03-13T06:30:13.850Z,11.70
2024-03-13T06:33:55.898Z,11.70
2024-03-13T06:37:37.929Z,11.80
2024-03-13T06:41:19.801Z,11.80
2024-03-13T06:45:01.733Z,11.80
2024-03-13T06:48:43.608Z,11.80
2024-03-13T06:52:25.653Z,11.80
2024-03-13T06:56:07.497Z,11.80
2024-03-13T06:59:49.412Z,11.80
2024-03-13T07:03:31.407Z,11.80
2024-03-13T07:07:13.380Z,11.80
2024-03-13T07:10:55.205Z,11.80
2024-03-13T07:14:37.136Z,11.80
2024-03-13T07:18:18.901Z,11.80
2024-03-13T07:22:06.650Z,11.80
2024-03-13T07:25:51.025Z,11.80
2024-03-13T07:29:32.932Z,11.70
2024-03-13T07:33:15.944Z,11.70
2024-03-13T07:36:58.347Z,11.70
2024-03-13T07:40:43.704Z,11.70
2024-03-13T07:44:25.654Z,11.60
2024-03-13T07:48:10.700Z,11.70
2024-03-13T07:51:55.773Z,11.70
2024-03-13T07:55:38.084Z,11.70
2024-03-13T07:59:20.224Z,11.80
2024-03-13T08:03:02.073Z,11.80
2024-03-13T09:06:44.660Z,12.40
2024-03-13T09:10:26.769Z,12.40
2024-03-13T09:14:09.096Z,12.50
2024-03-13T09:17:51.984Z,12.50
2024-03-13T09:21:34.875Z,12.50
2024-03-13T09:25:17.095Z,12.50
2024-03-13T09:28:58.983Z,12.60
2024-03-13T09:32:42.334Z,12.60
2024-03-13T09:36:25.973Z,12.60
2024-03-13T09:40:17.726Z,12.50
2024-03-13T09:44:01.036Z,12.50
2024-03-13T09:47:45.451Z,12.70
2024-03-13T09:51:28.546Z,12.70
2024-03-13T09:55:14.386Z,12.70
2024-03-13T09:58:57.763Z,12.80
2024-03-13T10:02:42.401Z,12.90
2024-03-13T10:06:26.135Z,13.00
2024-03-13T10:10:29.648Z,13.00
2024-03-13T10:14:12.831Z,13.00
2024-03-13T10:18:22.084Z,13.00
2024-03-13T10:22:05.132Z,13.10
2024-03-13T10:25:48.743Z,13.10
2024-03-13T10:29:35.502Z,13.10
2024-03-13T10:33:18.150Z,13.10
2024-03-13T10:37:08.496Z,13.00
2024-03-13T10:40:58.260Z,13.00
2024-03-13T10:44:41.594Z,13.00
2024-03-13T10:48:25.253Z,13.00
2024-03-13T10:52:13.073Z,13.10
2024-03-13T10:55:55.121Z,13.20
2024-03-13T10:59:36.962Z,13.20
2024-03-13T11:03:20.876Z,13.30
2024-03-13T11:07:02.825Z,13.30
2024-03-13T11:10:51.534Z,13.50
2024-03-13T11:14:42.923Z,13.60
2024-03-13T11:18:25.714Z,13.70
2024-03-13T11:22:09.607Z,13.80
2024-03-13T11:25:51.766Z,13.80
2024-03-13T11:29:45.315Z,13.90
2024-03-13T11:33:27.570Z,13.90
2024-03-13T11:37:12.801Z,14.10
2024-03-13T11:40:56.089Z,14.20
2024-03-13T11:44:39.101Z,14.20
2024-03-13T11:48:24.160Z,14.20
2024-03-13T11:52:10.114Z,14.20
2024-03-13T11:55:54.188Z,14.80
2024-03-13T11:59:39.515Z,15.20
2024-03-13T12:03:22.185Z,15.30
2024-03-13T12:07:04.385Z,15.20
2024-03-13T12:10:50.223Z,15.00
2024-03-13T12:14:33.369Z,14.80
2024-03-13T12:18:17.748Z,14.90
2024-03-13T12:22:03.633Z,15.30
2024-03-13T12:25:46.145Z,16.10
2024-03-13T12:29:29.192Z,16.20
2024-03-13T12:33:12.729Z,15.90
2024-03-13T12:36:54.769Z,15.80
2024-03-13T12:40:36.628Z,15.50
2024-03-13T12:44:19.656Z,15.20
2024-03-13T12:48:04.285Z,15.10
2024-03-13T12:51:46.331Z,15.10
2024-03-13T12:55:28.606Z,15.10
2024-03-13T12:59:12.396Z,15.00
2024-03-13T13:03:00.357Z,14.90
2024-03-13T13:06:43.414Z,14.70
2024-03-13T13:10:27.107Z,14.60
2024-03-13T13:14:11.928Z,14.60
2024-03-13T13:17:53.969Z,14.60
2024-03-13T13:21:36.042Z,14.60
2024-03-13T13:25:19.843Z,14.30
2024-03-13T13:32:48.087Z,14.30
2024-03-13T13:36:30.157Z,14.20
2024-03-13T13:40:17.215Z,14.20
2024-03-13T13:44:00.453Z,14.00
2024-03-13T13:47:45.797Z,14.00
2024-03-13T13:51:28.724Z,14.00
2024-03-13T13:55:11.439Z,14.10
2024-03-13T13:58:53.271Z,14.00
2024-03-13T14:02:35.200Z,13.90
2024-03-13T14:06:17.255Z,13.90
2024-03-13T14:09:59.216Z,13.90
2024-03-13T14:13:44.064Z,14.00
2024-03-13T14:17:28.541Z,14.00
2024-03-13T14:21:11.586Z,14.00
2024-03-13T14:24:55.759Z,13.90
2024-03-13T14:28:37.616Z,13.90
2024-03-13T14:32:19.478Z,13.90
2024-03-13T14:36:01.489Z,13.80
2024-03-13T14:39:43.367Z,13.90
2024-03-13T14:43:25.123Z,13.90
2024-03-13T14:47:10.058Z,14.00
2024-03-13T14:50:54.153Z,14.10
2024-03-13T14:54:36.046Z,14.10
2024-03-13T14:58:20.664Z,14.20
2024-03-13T15:02:03.772Z,14.60
2024-03-13T15:05:45.769Z,14.90
2024-03-13T15:09:27.776Z,15.00
2024-03-13T15:13:09.665Z,15.20
2024-03-13T15:16:54.008Z,15.30
2024-03-13T15:20:36.817Z,15.30
2024-03-13T15:24:18.732Z,15.50
2024-03-13T15:28:01.918Z,15.50
2024-03-13T15:31:43.774Z,15.50
2024-03-13T15:35:25.609Z,15.50
2024-03-13T15:39:07.515Z,15.30
2024-03-13T15:42:49.455Z,15.20
2024-03-13T15:46:31.682Z,15.00
2024-03-13T15:50:24.304Z,14.90
2024-03-13T15:54:12.189Z,14.90
2024-03-13T15:57:54.257Z,14.70
2024-03-13T16:01:37.146Z,14.70
2024-03-13T16:05:23.375Z,14.60
2024-03-13T16:09:13.298Z,14.60
2024-03-13T16:12:56.041Z,14.50
2024-03-13T16:16:38.148Z,14.40
2024-03-13T16:36:23.572Z,13.90
2024-03-13T16:40:06.432Z,13.80
2024-03-13T16:43:50.824Z,13.70
2024-03-13T16:47:32.865Z,13.70
2024-03-13T16:51:14.906Z,13.60
2024-03-13T16:54:56.972Z,13.50
2024-03-13T16:58:39.025Z,13.50
2024-03-13T17:02:23.861Z,13.40
2024-03-13T17:06:06.150Z,13.30
2024-03-13T17:09:51.499Z,13.20
2024-03-13T17:13:34.314Z,13.20
2024-03-13T17:17:16.315Z,13.20
2024-03-13T17:20:58.555Z,13.10
2024-03-13T17:24:42.441Z,13.10
2024-03-13T17:28:24.292Z,13.00
2024-03-13T17:32:07.586Z,12.90
2024-03-13T17:35:52.207Z,12.90
2024-03-13T17:39:34.461Z,12.80
2024-03-13T17:43:17.129Z,12.70
2024-03-13T17:46:59.016Z,12.70
2024-03-13T17:50:43.827Z,12.70
2024-03-13T17:54:27.257Z,12.60
2024-03-13T17:58:10.618Z,12.50
2024-03-13T18:01:52.516Z,12.50
2024-03-13T18:05:38.921Z,12.40
2024-03-13T18:09:24.618Z,12.30
2024-03-13T18:13:06.820Z,12.30
2024-03-13T18:16:48.836Z,12.30
2024-03-13T18:20:32.720Z,12.20
2024-03-13T18:24:14.764Z,12.20
2024-03-13T18:27:56.662Z,12.20
2024-03-13T18:31:38.564Z,12.20
2024-03-13T18:35:23.059Z,12.20
2024-03-13T18:39:08.130Z,12.20
2024-03-13T18:42:51.550Z,12.20
2024-03-13T18:46:34.206Z,12.20
2024-03-13T18:50:16.270Z,12.20
2024-03-13T18:53:59.017Z,12.20
2024-03-13T18:57:41.937Z,12.20
2024-03-13T19:01:24.047Z,12.20
2024-03-13T19:05:11.046Z,12.20
2024-03-13T19:09:00.520Z,12.20
2024-03-13T19:12:42.546Z,12.20
2024-03-13T19:16:27.506Z,12.20
2024-03-13T19:20:09.776Z,12.20
2024-03-13T19:23:54.450Z,12.30
2024-03-13T19:27:36.380Z,12.20
2024-03-13T19:31:23.531Z,12.20
2024-03-13T19:35:09.025Z,12.30
2024-03-13T19:38:50.980Z,12.30
2024-03-13T19:42:33.635Z,12.30
2024-03-13T19:46:15.602Z,12.30
2024-03-13T19:50:00.856Z,12.20
2024-03-13T19:53:42.811Z,12.20
2024-03-13T19:57:27.884Z,12.20
2024-03-13T20:01:10.748Z,12.30
2024-03-13T20:04:52.935Z,12.20
2024-03-13T20:08:36.380Z,12.30
2024-03-13T20:12:18.638Z,12.30
2024-03-13T20:16:03.108Z,12.20
2024-03-13T20:19:45.135Z,12.20
2024-03-13T20:23:29.241Z,12.20
2024-03-13T20:27:11.311Z,12.20
2024-03-13T20:30:53.132Z,12.20
2024-03-13T20:34:35.025Z,12.20
2024-03-13T20:38:16.802Z,12.20
2024-03-13T20:41:58.797Z,12.20
2024-03-13T20:45:40.732Z,12.20
2024-03-13T20:49:23.013Z,12.20
2024-03-13T20:53:06.931Z,12.20
2024-03-13T20:56:49.701Z,12.10
2024-03-13T21:00:31.889Z,12.10
2024-03-13T21:04:16.792Z,12.10
2024-03-13T21:07:59.785Z,12.10
2024-03-13T21:11:41.783Z,12.00
2024-03-13T21:15:24.316Z,12.00
2024-03-13T21:19:06.552Z,12.00
2024-03-13T21:22:48.552Z,12.00
2024-03-13T21:26:34.114Z,12.00
2024-03-13T21:30:16.532Z,12.00
2024-03-13T21:34:02.573Z,12.00
2024-03-13T21:37:46.040Z,12.00
2024-03-13T21:41:28.002Z,12.00
2024-03-13T21:45:11.141Z,11.90
2024-03-13T21:48:53.162Z,12.00
2024-03-13T21:52:35.207Z,12.00
2024-03-13T21:56:17.788Z,12.00
2024-03-13T21:59:59.860Z,12.00
2024-03-13T22:03:41.693Z,12.00
2024-03-13T22:07:25.402Z,12.10
2024-03-13T22:11:07.308Z,12.10
2024-03-13T22:14:49.207Z,12.10
2024-03-13T22:18:33.534Z,12.00
2024-03-13T22:22:15.437Z,12.00
2024-03-13T22:25:57.901Z,12.10
2024-03-13T22:29:40.235Z,12.10
2024-03-13T22:33:22.182Z,12.10
2024-03-13T22:37:05.081Z,12.10
2024-03-13T22:40:46.974Z,12.10
2024-03-13T22:44:28.895Z,12.10
2024-03-13T22:48:10.884Z,12.00
2024-03-13T22:51:52.961Z,12.10
2024-03-13T22:55:37.852Z,12.10
2024-03-13T22:59:21.290Z,12.00
2024-03-13T23:03:06.703Z,12.10
2024-03-13T23:06:48.671Z,12.10
2024-03-13T23:10:30.789Z,12.00
2024-03-13T23:14:12.828Z,12.00
2024-03-13T23:17:54.902Z,12.10
2024-03-13T23:21:39.923Z,12.10
2024-03-13T23:25:23.427Z,12.00
2024-03-13T23:29:09.580Z,12.10
2024-03-13T23:32:51.692Z,12.00
2024-03-13T23:36:33.659Z,12.00
2024-03-13T23:40:16.894Z,12.00
2024-03-13T23:43:58.728Z,12.10
2024-03-13T23:47:46.390Z,12.00
2024-03-13T23:51:28.952Z,12.00
2024-03-13T23:55:10.908Z,12.00
2024-03-13T23:58:52.686Z,12.10
